Frenchville, Pennsylvania
Current Conditions -  °F | °C
As of 8:54 AM on Saturday 25 Oct 2014 (Local Time) from KFIG Reporting Station
Overcast Overcast  
Wind Chill: 40°   Ceiling: 4400
Heat Index: 45°   Visibility: 10mi
Dew Point: 40°   Wind: 9mph
Humidity: 82%   Direction: 200°SSW
Pressure: 29.92"   Gusts: NA
Location:  41.1°N, 78.22°W
Report Text: KFIG 251254Z AUTO 20008KT 10SM OVC044 07/04 A2992 RMK AO2 SLP137 T00720044
Loading
Personal Weather Stations






























Interactive Weather Map
Tropical Storm Tracking
New forecast layout! Learn more

10-Day Weather Forecast

Advertisements
Track Severe Weather on mobile